AirNav   Textron
 
 348 users online  

1T8 Bulverde Airpark
San Antonio, Texas, USA

GOING TO SAN ANTONIO?


FAA INFORMATION EFFECTIVE 09 NOVEMBER 2017

Location

FAA Identifier: 1T8
Lat/Long: 29-44-20.8000N / 098-27-04.0610W
29-44.346667N / 098-27.067683W
29.7391111 / -98.4511281
(estimated)
Elevation: 1080 ft. / 329 m (estimated)
Variation: 07E (1985)
From city: 16 miles N of SAN ANTONIO, TX
Time zone: UTC -6 (UTC -5 during Daylight Saving Time)
Zip code: 78163

Airport Operations

Airport use: Open to the public
Control tower: no
ARTCC: HOUSTON CENTER
FSS: SAN ANGELO FLIGHT SERVICE STATION
NOTAMs facility: SJT (NOTAM-D service available)
Attendance: 0900-1700
Pattern altitude: 2000 ft. MSL
Wind indicator: yes
Segmented circle: yes
Lights: ACTVT LIRL RY 16/34 - CTAF.
Beacon: white-green (lighted land airport)
DUSK-2200.

Airport Communications

CTAF/UNICOM: 122.8
WX ASOS at SAT (12 nm S): PHONE 210-805-5583
WX AWOS-3 at 5C1 (13 nm W): 118.725 (830-755-9099)

Nearby radio navigation aids

VOR radial/distance  VOR name  Freq  Var
SATr357/5.7SAN ANTONIO VORTAC116.8008E
RNDr322/15.8RANDOLPH VORTAC112.3005E
SSFr350/(28.8)STINSON VOR108.4009E
STVr147/31.0STONEWALL VORTAC113.8008E

 
NDB name  Hdg/Dist  Freq  Var  ID
ALAMO034/10.036804EAN .- -.

Airport Services

Fuel available: 100LL
FUEL AVBL 24 HRS SELF SVC WITH MAJOR CREDIT CARD
Parking: hangars and tiedowns
Airframe service: MAJOR
Powerplant service: MAJOR

Runway Information

Runway 16/34

Dimensions: 2890 x 40 ft. / 881 x 12 m
Surface: asphalt, in good condition
Runway edge lights: non-standard
NSTD LIRL; ONLY CNTR 2600 FT LGTD; RWY 16 DSPLCD THLD HAS SINGLE GREEN LGT EACH SIDE. RWY 34 HAS NO DSPLCD THLD LGTS.
Runway edge markings: RWY 16/34 MKD WITH 20 FT HIGH NRS; NO CNTRLN STRIPES; NUMBERS NOT AT DSPLCD THLD; AND NO DSPLCD THLD MARKINGS
RUNWAY 16  RUNWAY 34
Traffic pattern: rightleft
Displaced threshold: 490 ft.200 ft.
Markings: NSTD, in fair conditionNSTD, in fair condition
Obstructions: 36 ft. pline, marked and lighted, 200 ft. from runway, 125 ft. right of centerline
RWY 16 +6' FENCE 100' FM THR ON CNTRLN; +10' ROAD 110' FM THR ACROSS CNTRLN; +25'-40' TREES 120' FM THR 75'-125' L OF CNTRLN, +35' POWER POLES 0' FM THR 108' L OF CNTRLN
27 ft. trees, 255 ft. from runway, 102 ft. right of centerline, 2:1 slope to clear
+36 FT TREES AT THLD 120 FT R.

Airport Ownership and Management from official FAA records

Ownership: Privately-owned
Owner: MARKLINE PROPERTIES INC
P.O. BOX 130
BULVERDE, TX 78163
Phone 830-438-4359
Manager: DANA ANDERSON
29890 BULVERDE LN #27
BULVERDE, TX 78163
Phone 830-438-4359

Airport Operational Statistics

Aircraft based on the field: 84
Single engine airplanes: 76
Multi engine airplanes: 4
Helicopters: 4
    
Aircraft operations: avg 66/day *
67% local general aviation
33% transient general aviation
* for 12-month period ending 14 December 2016

Additional Remarks

NOISE ABATEMENT PROCEDURES IN EFFECT CTC AMGR 830-438-4359.
NO TOUCH & GO, STOP & GO, OR LOW APPROACHES.
DEER ON OR IN INVOF ARPT
HELICOPTER LEFT HAND TRAFFIC 16; ALL OTHER RIGHT HAND TRAFFIC 16.
FOR CD CTC SAT APCH AT 210-805-5516.

Instrument Procedures

There are no published instrument procedures at 1T8.

Some nearby airports with instrument procedures:

KSAT - San Antonio International Airport (12 nm S)
5C1 - Boerne Stage Field Airport (13 nm W)
KRND - Randolph Air Force Base (16 nm SE)
KBAZ - New Braunfels Regional Airport (21 nm E)
KSKF - Kelly Field Airport (22 nm S)
 
Loc | Ops | Rwys | IFR | FBO | Links
Com | Nav | Svcs | Stats | Notes


 
Area around 1T8 (Bulverde Airpark)
 
Road maps at: MapQuest Bing Google
 
Aerial photo
WARNING: Photo may not be current or correct
Aerial photo of 1T8 (Bulverde Airpark)
Photo © Copyright 2004, by Michael Verber

Do you have a better or more recent aerial photo of Bulverde Airpark that you would like to share? If so, please send us your photo.

 
Sectional chart

 
Airport distance calculator
Flying to Bulverde Airpark? Find the distance to fly.

From to 1T8

Sunrise and sunset
Times for 19-Nov-2017
 Local
(UTC-6)
 Zulu
(UTC)
Morning civil twilight06:3712:37
Sunrise07:0313:03
Sunset17:3623:36
Evening civil twilight18:0100:01

Current date and time
Zulu (UTC)  19-Nov-2017 08:55:21
Local (UTC-6)  19-Nov-2017 02:55:21
 
METAR
KSAT 
12nm S 
190751Z 02007G17KT 10SM FEW250 11/01 A3032 RMK AO2 SLP252 T01110011
K5C1 
13nm W 
190835Z AUTO 01007KT 10SM CLR 08/M01 A3033 RMK AO1
KRND 
16nm SE 
190756Z AUTO 01010KT 10SM CLR 11/02 A3030 RMK AO2 SLP256 T01130015
KBAZ 
21nm E 
190751Z AUTO 01010KT 10SM CLR 10/02 A3029 RMK AO2 SLP254 T01000017
KSKF 
23nm S 
190756Z AUTO 01010KT 10SM CLR 12/01 A3030 RMK AO2 SLP256 T01170013 $
KSSF 
24nm S 
190753Z AUTO 36008KT 10SM CLR 13/02 A3030 RMK AO2 SLP252 T01280017
TAF
KSAT 
12nm S 
190536Z 1906/2012 01015KT P6SM SCT250 FM191000 36010KT P6SM SCT250 FM191600 04005KT P6SM SCT250
KRND 
16nm SE 
181716Z 1817/1916 24010G15KT 9999 SCT017 QNH2990INS TEMPO 1817/1818 27015G25KT BECMG 1817/1818 27015G25KT 9999 SCT020 QNH2993INS TEMPO 1819/1824 36020G35KT 510003 BECMG 1823/1824 02012KT 9999 SKC QNH3007INS BECMG 1911/1912 02009KT 9999 FEW250 QNH3009INS TX27/1821Z TN12/1909Z LAST NO AMDS AFT 1818 NEXT 1918
NOTAMs
Click for the latest NOTAMs
NOTAMs are issued by the DoD/FAA and will open in a separate window not controlled by AirNav.

 

 
 

FBO, Fuel Providers, and Aircraft Ground Support

  
 Business Name 
 
 Contact 
 
 Services / Description 
 
Fuel Prices
 
Comments
  
 Anderson Aviation
210-287-9073
[web site]
[email]
Airport management, Aviation fuel, Flight training, Aircraft rental, Pilot supplies

More info about Anderson Aviation
EPIC
100LL
SS $4.25 
 Updated 14-Nov-2017
 
   1 read write
SS=Self service
Update Fuel Prices
 

Would you like to see your business listed on this page?

 If your business provides an interesting product or service to pilots, flight crews, aircraft, or users of the Bulverde Airpark, you should consider listing it here.  To start the listing process, click on the button below
 
Add a business
 

Other Pages about Bulverde Airpark

Update a link
 
Copyright © AirNav, LLC. All rights reserved. Privacy Policy  Contact